Terminal Aerodrome Forecast
Issued by NWS

Home | Current Version | Previous Version | Text Only | Print | Product List | Glossary On
Versions: 1 2 3 4 5 6 7 8 9 10 11 12
000
FTUS45 KABQ 302300
TAFAEG
TAF
KAEG 302340Z 0100/0124 31008KT P6SM SKC
     FM010300 31005KT P6SM SKC
     FM011800 22008KT P6SM SCT150
     FM012100 23013G21KT P6SM SCT120=

USA.gov is the U.S. government's official web portal to all federal, state and local government web resources and services.